Главная страница
METAR-TAF:

METAR-TAF

Аэропорты :

Cumberland, Мэриленд, США

широта: 39-36-56N, долгота: 078-45-39W, высота над уровнем моря: 236 м

Текущие метеонаблюдения

Эта сводка был подготовлена 20 минут назад, в 15:20 UTC
Ветер 3 Узел от северо-восточный
Температура -2°C
Влажность 93%
Давление 1029 hPa
Видимость: 2.0 км
Рассеянная облачность на высоте 500 фута
Рассеянная облачность на высоте 900 фута
Сплошная облачность на высоте 1400 фута
небольшой снег, дымка

METAR: KCBE 151520Z AUTO 04003KT 1 1/4SM -SN BR BKN005 BKN009 OVC014 M02/M03 A3038 RMK AO2 T10191027

Время: 10:40 (15:40 UTC)


TAF: отсутствует

Метеонаблюдения и прогнозы для более 4000 аэропортов (сводки METAR и TAF).

Имеющиеся станции представлены на карте желтыми и красными точками.

Чтобы увидеть название станции, наведите на нее мышь.

Затем щелкните, чтобы увидеть метеонаблюдения и метеопрогнозы.

Управление картой: чтобы увеличить масштаб, щелкните зеленые кнопки с черным крестиком; чтобы уменьшить масштаб, щелкните зеленую кнопку с тире; для просмотра соседних карт щелкайте зеленые стрелки.


METAR-TAF: